createdAt,value
2023-01-29T00:04:50.935Z,34.8
2023-01-29T00:10:56.902Z,34.8
2023-01-29T00:17:02.951Z,34.9
2023-01-29T00:23:08.661Z,34.7
2023-01-29T00:29:14.447Z,34.8
2023-01-29T00:35:21.022Z,34.8
2023-01-29T00:41:26.809Z,34.7
2023-01-29T00:47:32.775Z,34.8
2023-01-29T00:53:38.971Z,34.8
2023-01-29T00:59:44.737Z,34.8
2023-01-29T01:05:50.731Z,34.7
2023-01-29T01:11:56.724Z,34.8
2023-01-29T01:18:02.314Z,34.8
2023-01-29T01:24:08.112Z,34.7
2023-01-29T01:30:14.648Z,34.7
2023-01-29T01:36:20.851Z,34.8
2023-01-29T01:42:26.633Z,34.7
2023-01-29T01:48:32.379Z,34.8
2023-01-29T01:54:37.841Z,34.8
2023-01-29T02:00:43.343Z,34.8
2023-01-29T02:06:49.939Z,34.8
2023-01-29T02:12:55.397Z,34.7
2023-01-29T02:19:01.478Z,34.8
2023-01-29T02:25:07.884Z,34.8
2023-01-29T02:31:13.928Z,34.7
2023-01-29T02:37:19.855Z,35
2023-01-29T02:43:26.865Z,34.8
2023-01-29T02:49:33.021Z,34.8
2023-01-29T02:55:39.261Z,34.8
2023-01-29T03:01:45.183Z,34.9
2023-01-29T03:07:51.441Z,34.9
2023-01-29T03:13:56.965Z,34.8
2023-01-29T03:20:02.930Z,34.8
2023-01-29T03:26:08.722Z,34.8
2023-01-29T03:32:14.720Z,34.7
2023-01-29T03:38:20.897Z,34.8
2023-01-29T03:44:26.857Z,34.9
2023-01-29T03:50:32.446Z,34.8
2023-01-29T03:56:38.610Z,34.8
2023-01-29T04:02:44.476Z,34.9
2023-01-29T04:08:50.575Z,34.8
2023-01-29T04:14:56.755Z,34.9
2023-01-29T04:21:02.803Z,34.9
2023-01-29T04:27:08.936Z,34.8
2023-01-29T04:33:14.926Z,34.7
2023-01-29T04:39:21.140Z,34.8
2023-01-29T04:45:26.682Z,34.8
2023-01-29T04:51:33.082Z,34.8
2023-01-29T04:57:38.840Z,34.8
2023-01-29T05:03:45.018Z,34.8
2023-01-29T05:09:50.880Z,34.8
2023-01-29T05:15:56.933Z,34.8
2023-01-29T05:22:02.850Z,34.9
2023-01-29T05:28:09.041Z,34.8
2023-01-29T05:34:15.209Z,34.7
2023-01-29T05:40:21.714Z,34.7
2023-01-29T05:46:27.680Z,34.5
2023-01-29T05:52:33.374Z,34.4
2023-01-29T05:58:39.572Z,34.2
2023-01-29T06:04:45.763Z,34.1
2023-01-29T06:10:51.972Z,34.1
2023-01-29T06:16:57.523Z,33.9
2023-01-29T06:23:03.898Z,34
2023-01-29T06:29:09.874Z,34
2023-01-29T06:35:15.858Z,34
2023-01-29T06:41:21.850Z,33.7
2023-01-29T06:47:28.243Z,33.9
2023-01-29T06:53:34.434Z,33.8
2023-01-29T06:59:41.011Z,33.7
2023-01-29T07:05:46.568Z,33.7
2023-01-29T07:11:52.772Z,33.8
2023-01-29T07:17:58.836Z,33.8
2023-01-29T07:24:04.753Z,33.8
2023-01-29T07:30:10.330Z,33.9
2023-01-29T07:36:16.285Z,33.9
2023-01-29T07:42:21.918Z,33.8
2023-01-29T07:48:27.852Z,33.9
2023-01-29T07:54:33.441Z,33.8
2023-01-29T08:00:39.493Z,33.7
2023-01-29T08:06:45.172Z,33.7
2023-01-29T08:12:51.569Z,33.7
2023-01-29T08:18:58.038Z,33.6
2023-01-29T08:25:11.716Z,33.5
2023-01-29T08:31:17.525Z,33.5
2023-01-29T08:37:23.553Z,33.5
2023-01-29T08:43:29.522Z,33.5
2023-01-29T08:49:36.042Z,33.4
2023-01-29T08:55:41.820Z,33.4
2023-01-29T09:01:48.407Z,33.5
2023-01-29T09:07:56.657Z,33.4
2023-01-29T09:14:02.644Z,33.4
2023-01-29T09:20:08.213Z,33.4
2023-01-29T09:26:14.467Z,33.4
2023-01-29T09:32:53.438Z,33.4
2023-01-29T09:38:59.941Z,33.4
2023-01-29T09:45:05.601Z,33.3
2023-01-29T09:51:11.492Z,33.3
2023-01-29T09:57:17.497Z,33.3
2023-01-29T10:03:23.049Z,33.2
2023-01-29T10:09:29.267Z,33.2
2023-01-29T10:15:35.212Z,33.2
2023-01-29T10:21:41.407Z,33.2
2023-01-29T10:27:47.171Z,33.1
2023-01-29T10:34:05.472Z,33.1
2023-01-29T10:40:12.043Z,33.1
2023-01-29T10:46:17.821Z,33.1
2023-01-29T10:52:23.813Z,33.1
2023-01-29T10:58:29.562Z,33.1
2023-01-29T11:04:35.976Z,33.1
2023-01-29T11:10:41.631Z,33.1
2023-01-29T11:16:48.020Z,33.1
2023-01-29T11:22:54.322Z,33.1
2023-01-29T11:29:00.001Z,33.1
2023-01-29T11:35:06.305Z,33.1
2023-01-29T11:41:12.051Z,33.2
2023-01-29T11:47:18.243Z,33.2
2023-01-29T11:53:24.444Z,33.1
2023-01-29T11:59:31.244Z,33.1
2023-01-29T12:05:37.020Z,33.1
2023-01-29T12:11:43.048Z,33.1
2023-01-29T12:17:49.607Z,33.1
2023-01-29T12:23:55.579Z,33.1
2023-01-29T12:30:01.771Z,33.1
2023-01-29T12:36:10.559Z,33.1
2023-01-29T12:42:16.647Z,33.1
2023-01-29T12:48:22.814Z,33.1
2023-01-29T12:54:28.968Z,33.1
2023-01-29T13:00:34.960Z,33.1
2023-01-29T13:06:41.125Z,33
2023-01-29T13:12:47.730Z,33
2023-01-29T13:18:53.563Z,33.1
2023-01-29T13:25:08.695Z,33
2023-01-29T13:31:14.902Z,33
2023-01-29T13:37:20.683Z,33
2023-01-29T13:43:26.660Z,33
2023-01-29T13:49:32.836Z,33
2023-01-29T13:55:39.004Z,33
2023-01-29T14:01:44.997Z,33
2023-01-29T14:07:51.014Z,33
2023-01-29T14:13:57.380Z,33
2023-01-29T14:20:03.356Z,33
2023-01-29T14:26:09.187Z,33
2023-01-29T14:32:15.372Z,33
2023-01-29T14:38:21.484Z,33
2023-01-29T14:44:28.092Z,32.9
2023-01-29T14:50:34.168Z,33
2023-01-29T14:56:40.246Z,33
2023-01-29T15:02:46.519Z,32.9
2023-01-29T15:08:52.438Z,33
2023-01-29T15:14:58.614Z,33
2023-01-29T15:21:07.061Z,32.9
2023-01-29T15:27:13.646Z,32.9
2023-01-29T15:33:19.609Z,32.9
2023-01-29T15:39:25.609Z,32.9
2023-01-29T15:45:32.019Z,32.9
2023-01-29T15:51:37.981Z,32.9
2023-01-29T15:57:44.171Z,33
2023-01-29T16:03:50.404Z,32.9
2023-01-29T16:09:56.333Z,32.9
2023-01-29T16:16:02.598Z,32.9
2023-01-29T16:22:09.126Z,32.9
2023-01-29T16:28:14.684Z,32.9
2023-01-29T16:34:20.487Z,32.9
2023-01-29T16:40:26.445Z,32.9
2023-01-29T16:46:32.845Z,33
2023-01-29T16:52:38.615Z,32.9
2023-01-29T16:58:44.801Z,32.9
2023-01-29T17:04:50.761Z,32.9
2023-01-29T17:10:56.558Z,32.9
2023-01-29T17:17:02.333Z,32.9
2023-01-29T17:23:08.330Z,32.9
2023-01-29T17:29:14.091Z,32.9
2023-01-29T17:35:21.000Z,32.9
2023-01-29T17:41:27.375Z,32.9
2023-01-29T17:47:33.899Z,32.9
2023-01-29T17:53:49.483Z,32.9
2023-01-29T17:59:55.683Z,32.9
2023-01-29T18:06:01.866Z,32.9
2023-01-29T18:12:07.631Z,32.9
2023-01-29T18:18:13.606Z,32.9
2023-01-29T18:24:19.402Z,32.9
2023-01-29T18:30:25.094Z,32.9
2023-01-29T18:36:31.369Z,32.9
2023-01-29T18:42:37.335Z,32.9
2023-01-29T18:48:45.968Z,32.9
2023-01-29T18:54:51.737Z,32.9
2023-01-29T19:00:57.791Z,32.8
2023-01-29T19:07:03.288Z,32.8
2023-01-29T19:13:10.320Z,32.8
2023-01-29T19:19:16.917Z,32.8
2023-01-29T19:25:23.287Z,32.8
2023-01-29T19:31:29.774Z,32.8
2023-01-29T19:37:35.956Z,32.8
2023-01-29T19:43:41.852Z,32.8
2023-01-29T19:49:48.052Z,32.8
2023-01-29T19:55:54.005Z,32.7
2023-01-29T20:02:00.447Z,32.8
2023-01-29T20:08:06.804Z,32.8
2023-01-29T20:14:12.372Z,32.7
2023-01-29T20:20:18.851Z,32.7
2023-01-29T20:26:25.798Z,32.7
2023-01-29T20:32:31.405Z,32.7
2023-01-29T20:38:37.591Z,32.7
2023-01-29T20:44:43.935Z,32.7
2023-01-29T20:50:49.963Z,32.6
2023-01-29T20:56:56.717Z,32.7
2023-01-29T21:03:02.886Z,32.6
2023-01-29T21:09:08.651Z,32.6
2023-01-29T21:15:14.699Z,32.6
2023-01-29T21:21:20.684Z,32.6
2023-01-29T21:27:26.708Z,32.6
2023-01-29T21:33:32.678Z,32.6
2023-01-29T21:39:39.058Z,32.6
2023-01-29T21:45:45.223Z,32.6
2023-01-29T21:51:50.555Z,32.6
2023-01-29T21:57:56.931Z,32.5
2023-01-29T22:04:03.115Z,32.6
2023-01-29T22:10:08.499Z,32.6
2023-01-29T22:16:14.459Z,32.6
2023-01-29T22:22:20.645Z,32.6
2023-01-29T22:28:26.282Z,32.6
2023-01-29T22:34:32.610Z,32.7
2023-01-29T22:40:38.370Z,32.7
2023-01-29T22:46:44.400Z,32.7
2023-01-29T22:52:50.330Z,32.8
2023-01-29T22:58:55.913Z,32.9
2023-01-29T23:05:01.687Z,33
2023-01-29T23:11:07.887Z,33.1
2023-01-29T23:17:13.928Z,33
2023-01-29T23:23:20.283Z,33.2
2023-01-29T23:29:25.678Z,33.1
2023-01-29T23:35:31.287Z,33.3
2023-01-29T23:41:37.253Z,33.2
2023-01-29T23:47:43.442Z,33.1
2023-01-29T23:53:49.322Z,33.2
2023-01-29T23:59:55.201Z,33.1
